createdAt,value
2022-10-07T00:00:32.566Z,102206.94
2022-10-07T00:01:35.506Z,102212.28
2022-10-07T00:02:37.517Z,102216.78
2022-10-07T00:03:40.947Z,102209.06
2022-10-07T00:04:46.165Z,102209.06
2022-10-07T00:05:59.840Z,102209.06
2022-10-07T00:07:02.755Z,102216.28
2022-10-07T00:08:04.758Z,102198.53
2022-10-07T00:09:07.816Z,102216.41
2022-10-07T00:10:09.843Z,102209.41
2022-10-07T00:11:14.720Z,102204.91
2022-10-07T00:12:16.779Z,102209.56
2022-10-07T00:13:21.106Z,102206.91
2022-10-07T00:14:23.018Z,102209.56
2022-10-07T00:15:25.956Z,102208.72
2022-10-07T00:16:31.365Z,102206.91
2022-10-07T00:17:33.369Z,102206.06
2022-10-07T00:18:36.827Z,102205.22
2022-10-07T00:19:38.776Z,102201.88
2022-10-07T00:20:42.008Z,102206.22
2022-10-07T00:21:43.975Z,102194.69
2022-10-07T00:22:46.914Z,102201.03
2022-10-07T00:23:49.352Z,102201.03
2022-10-07T00:24:52.318Z,102191.38
2022-10-07T00:25:54.279Z,102201.22
2022-10-07T00:26:57.236Z,102197.84
2022-10-07T00:27:59.413Z,102198.69
2022-10-07T00:29:04.673Z,102202.34
2022-10-07T00:30:07.679Z,102199.03
2022-10-07T00:31:15.853Z,102204.69
2022-10-07T00:32:17.898Z,102194.00
2022-10-07T00:33:22.012Z,102194.00
2022-10-07T00:34:26.020Z,102190.50
2022-10-07T00:35:28.947Z,102190.69
2022-10-07T00:36:32.656Z,102187.00
2022-10-07T00:37:36.203Z,102180.00
2022-10-07T00:38:38.753Z,102180.97
2022-10-07T00:39:41.932Z,102177.31
2022-10-07T00:40:43.955Z,102173.97
2022-10-07T00:41:50.289Z,102175.78
2022-10-07T00:42:52.486Z,102177.63
2022-10-07T00:43:55.930Z,102154.41
2022-10-07T00:44:59.202Z,102179.66
2022-10-07T00:46:09.012Z,102179.81
2022-10-07T00:47:14.498Z,102171.94
2022-10-07T00:48:23.729Z,102183.63
2022-10-07T00:49:28.174Z,102170.59
2022-10-07T00:50:31.091Z,102169.75
2022-10-07T00:51:35.319Z,102167.25
2022-10-07T00:52:43.276Z,102168.28
2022-10-07T00:53:49.391Z,102171.94
2022-10-07T00:54:55.974Z,102170.28
2022-10-07T00:56:01.764Z,102178.44
2022-10-07T00:57:05.042Z,102175.94
2022-10-07T00:58:09.383Z,102169.91
2022-10-07T00:59:15.087Z,102165.56
2022-10-07T01:00:18.492Z,102167.59
2022-10-07T01:01:22.377Z,102165.72
2022-10-07T01:02:25.720Z,102167.75
2022-10-07T01:03:29.217Z,102166.91
2022-10-07T01:04:31.154Z,102163.56
2022-10-07T01:05:34.099Z,102155.72
2022-10-07T01:06:39.204Z,102155.88
2022-10-07T01:07:43.449Z,102157.88
2022-10-07T01:08:47.617Z,102159.69
2022-10-07T01:09:52.408Z,102158.03
2022-10-07T01:11:01.929Z,102152.00
2022-10-07T01:12:12.022Z,102147.16
2022-10-07T01:13:19.518Z,102147.84
2022-10-07T01:14:32.077Z,102148.81
2022-10-07T01:15:40.678Z,102147.16
2022-10-07T01:16:51.944Z,102144.50
2022-10-07T01:18:03.228Z,102147.16
2022-10-07T01:19:17.612Z,102147.16
2022-10-07T01:20:29.618Z,102147.16
2022-10-07T01:21:39.589Z,102140.13
2022-10-07T01:22:50.618Z,102144.50
2022-10-07T01:24:04.031Z,102135.47
2022-10-07T01:25:24.571Z,102140.81
2022-10-07T01:26:48.852Z,102136.16
2022-10-07T01:27:56.081Z,102137.16
2022-10-07T01:29:01.061Z,102134.50
2022-10-07T01:30:07.264Z,102135.31
2022-10-07T01:31:16.113Z,102129.16
2022-10-07T01:32:24.508Z,102133.47
2022-10-07T01:33:29.806Z,102128.31
2022-10-07T01:34:34.972Z,102126.66
2022-10-07T01:35:37.971Z,102123.13
2022-10-07T01:36:47.576Z,102124.13
2022-10-07T01:37:53.242Z,102122.28
2022-10-07T01:39:02.542Z,102119.09
2022-10-07T01:40:10.303Z,102116.09
2022-10-07T01:41:16.636Z,102116.28
2022-10-07T01:42:21.185Z,102117.44
2022-10-07T01:43:26.411Z,102107.44
2022-10-07T01:44:30.402Z,102126.31
2022-10-07T01:45:36.956Z,102107.63
2022-10-07T01:46:39.066Z,102112.09
2022-10-07T01:47:42.474Z,102099.75
2022-10-07T01:48:46.007Z,102102.75
2022-10-07T01:49:49.358Z,102100.75
2022-10-07T01:50:52.057Z,102095.56
2022-10-07T01:52:11.253Z,102100.91
2022-10-07T01:53:31.252Z,102100.06
2022-10-07T01:54:44.626Z,102099.25
2022-10-07T01:56:00.095Z,102098.41
2022-10-07T01:57:18.282Z,102096.72
2022-10-07T01:58:33.095Z,102092.41
2022-10-07T02:00:07.336Z,102096.06
2022-10-07T02:01:25.949Z,102087.38
2022-10-07T02:02:45.216Z,102087.56
2022-10-07T02:04:01.359Z,102089.38
2022-10-07T02:05:13.604Z,102086.38
2022-10-07T02:06:29.853Z,102081.69
2022-10-07T02:07:41.352Z,102086.19
2022-10-07T02:08:49.341Z,102091.69
2022-10-07T02:09:58.226Z,102086.38
2022-10-07T02:11:12.136Z,102084.72
2022-10-07T02:12:24.931Z,102083.84
2022-10-07T02:13:35.677Z,102077.00
2022-10-07T02:14:44.300Z,102081.53
2022-10-07T02:15:56.044Z,102078.19
2022-10-07T02:17:03.443Z,102072.00
2022-10-07T02:18:09.396Z,102071.00
2022-10-07T02:19:16.070Z,102072.84
2022-10-07T02:20:22.305Z,102070.34
2022-10-07T02:21:29.353Z,102083.69
2022-10-07T02:22:32.689Z,102067.84
2022-10-07T02:23:40.603Z,102065.00
2022-10-07T02:24:45.491Z,102057.97
2022-10-07T02:25:49.571Z,102063.31
2022-10-07T02:26:54.806Z,102050.13
2022-10-07T02:27:57.953Z,102056.31
2022-10-07T02:29:08.712Z,102055.63
2022-10-07T02:30:14.878Z,102058.31
2022-10-07T02:31:24.685Z,102046.81
2022-10-07T02:32:28.484Z,102050.47
2022-10-07T02:33:35.043Z,102044.78
2022-10-07T02:34:41.203Z,102049.63
2022-10-07T02:35:48.516Z,102043.63
2022-10-07T02:36:53.642Z,102048.97
2022-10-07T02:38:01.077Z,102044.59
2022-10-07T02:39:04.929Z,102049.13
2022-10-07T02:40:12.283Z,102031.44
2022-10-07T02:41:31.483Z,102031.44
2022-10-07T02:42:47.878Z,102045.78
2022-10-07T02:43:56.329Z,102038.59
2022-10-07T02:45:10.199Z,102038.59
2022-10-07T02:46:20.223Z,102037.63
2022-10-07T02:47:29.059Z,102035.78
2022-10-07T02:48:36.601Z,102033.13
2022-10-07T02:49:41.816Z,102034.94
2022-10-07T02:50:49.036Z,102034.94
2022-10-07T02:52:05.317Z,102028.94
2022-10-07T02:53:10.215Z,102029.78
2022-10-07T02:54:17.859Z,102027.91
2022-10-07T02:55:26.054Z,102028.94
2022-10-07T02:56:30.007Z,102026.25
2022-10-07T02:57:36.227Z,102040.44
2022-10-07T02:58:44.794Z,102025.25
2022-10-07T02:59:52.245Z,102032.28
2022-10-07T03:00:59.406Z,102017.94
2022-10-07T03:02:04.885Z,102018.78
2022-10-07T03:03:07.038Z,102018.59
2022-10-07T03:04:28.207Z,102017.59
2022-10-07T03:05:30.213Z,102011.28
2022-10-07T03:06:37.453Z,102015.59
2022-10-07T03:07:39.849Z,102017.28
2022-10-07T03:08:43.509Z,102017.13
2022-10-07T03:09:45.538Z,102011.63
2022-10-07T03:10:49.348Z,102009.78
2022-10-07T03:11:51.319Z,102010.78
2022-10-07T03:12:54.395Z,102009.63
2022-10-07T03:13:57.164Z,102010.28
2022-10-07T03:15:00.126Z,102013.78
2022-10-07T03:16:05.407Z,102006.47
2022-10-07T03:17:08.531Z,102010.78
2022-10-07T03:18:26.385Z,102010.63
2022-10-07T03:19:33.601Z,102010.31
2022-10-07T03:20:36.215Z,102007.63
2022-10-07T03:21:40.577Z,102007.31
2022-10-07T03:22:43.418Z,102009.81
2022-10-07T03:23:46.295Z,102005.31
2022-10-07T03:24:48.200Z,102004.31
2022-10-07T03:25:52.888Z,102005.97
2022-10-07T03:26:56.551Z,101985.44
2022-10-07T03:27:59.576Z,102002.31
2022-10-07T03:29:02.238Z,101996.97
2022-10-07T03:30:07.422Z,101997.81
2022-10-07T03:31:12.142Z,101992.59
2022-10-07T03:32:20.267Z,101992.59
2022-10-07T03:33:26.327Z,101997.94
2022-10-07T03:34:30.438Z,101993.63
2022-10-07T03:35:32.349Z,101999.81
2022-10-07T03:36:35.512Z,101996.28
2022-10-07T03:37:38.874Z,101993.63
2022-10-07T03:38:44.507Z,101998.13
2022-10-07T03:39:47.636Z,101991.97
2022-10-07T03:40:50.534Z,101994.63
2022-10-07T03:41:52.624Z,101991.13
2022-10-07T03:42:55.513Z,101992.94
2022-10-07T03:43:59.048Z,101989.59
2022-10-07T03:45:03.132Z,101978.91
2022-10-07T03:46:05.421Z,101996.13
2022-10-07T03:47:12.163Z,101977.44
2022-10-07T03:48:14.710Z,101985.63
2022-10-07T03:49:20.154Z,101977.09
2022-10-07T03:50:22.223Z,101974.59
2022-10-07T03:51:25.786Z,101978.91
2022-10-07T03:52:28.132Z,101979.09
2022-10-07T03:53:31.134Z,101983.59
2022-10-07T03:54:35.471Z,101980.09
2022-10-07T03:55:39.441Z,101976.59
2022-10-07T03:56:41.337Z,101969.75
2022-10-07T03:57:59.156Z,101974.25
2022-10-07T03:59:03.342Z,101972.56
2022-10-07T04:00:08.778Z,101970.06
2022-10-07T04:01:17.432Z,101970.06
2022-10-07T04:02:25.945Z,101966.59
2022-10-07T04:03:28.320Z,101967.22
2022-10-07T04:04:31.481Z,101957.56
2022-10-07T04:05:34.149Z,101976.59
2022-10-07T04:06:37.924Z,101960.25
2022-10-07T04:07:45.338Z,101963.59
2022-10-07T04:08:53.427Z,101958.25
2022-10-07T04:09:55.362Z,101956.41
2022-10-07T04:10:58.421Z,101963.59
2022-10-07T04:12:00.342Z,101958.06
2022-10-07T04:13:03.858Z,101964.44
2022-10-07T04:14:05.954Z,101966.25
2022-10-07T04:15:13.639Z,101961.75
2022-10-07T04:16:17.195Z,101959.22
2022-10-07T04:17:20.141Z,101960.25
2022-10-07T04:18:23.772Z,101962.06
2022-10-07T04:19:28.793Z,101958.59
2022-10-07T04:20:30.715Z,101963.06
2022-10-07T04:21:34.006Z,101961.41
2022-10-07T04:22:36.589Z,101963.06
2022-10-07T04:23:41.629Z,101982.78
2022-10-07T04:24:43.840Z,101955.25
2022-10-07T04:25:48.047Z,101955.25
2022-10-07T04:26:52.865Z,101958.88
2022-10-07T04:27:57.597Z,101956.22
2022-10-07T04:29:02.238Z,101947.56
2022-10-07T04:30:05.223Z,101951.88
2022-10-07T04:31:10.416Z,101952.06
2022-10-07T04:32:16.022Z,101949.41
2022-10-07T04:33:19.700Z,101954.22
2022-10-07T04:34:23.305Z,101949.72
2022-10-07T04:35:26.800Z,101952.22
2022-10-07T04:36:29.642Z,101950.53
2022-10-07T04:37:41.382Z,101944.41
2022-10-07T04:38:46.653Z,101950.88
2022-10-07T04:40:00.074Z,101941.91
2022-10-07T04:41:07.851Z,101941.91
2022-10-07T04:42:32.110Z,101940.22
2022-10-07T04:43:35.918Z,101938.53
2022-10-07T04:44:41.581Z,101943.88
2022-10-07T04:45:44.502Z,101939.38
2022-10-07T04:46:46.671Z,101947.53
2022-10-07T04:47:51.456Z,101942.19
2022-10-07T04:48:54.434Z,101943.03
2022-10-07T04:50:00.934Z,101934.19
2022-10-07T04:51:04.795Z,101943.22
2022-10-07T04:52:06.825Z,101932.53
2022-10-07T04:53:15.212Z,101937.88
2022-10-07T04:54:17.128Z,101933.56
2022-10-07T04:55:26.501Z,101933.56
2022-10-07T04:56:31.359Z,101929.03
2022-10-07T04:57:34.028Z,101929.03
2022-10-07T04:58:37.368Z,101925.53
2022-10-07T04:59:42.864Z,101927.19
2022-10-07T05:00:49.679Z,101929.03
2022-10-07T05:01:53.373Z,101920.22
2022-10-07T05:02:57.566Z,101927.19
2022-10-07T05:04:01.049Z,101924.69
2022-10-07T05:05:05.555Z,101924.69
2022-10-07T05:06:09.355Z,101925.72
2022-10-07T05:07:13.323Z,101917.72
2022-10-07T05:08:19.625Z,101921.19
2022-10-07T05:09:21.879Z,101929.19
2022-10-07T05:10:24.776Z,101922.19
2022-10-07T05:11:27.776Z,101926.53
2022-10-07T05:12:36.176Z,101930.03
2022-10-07T05:13:39.563Z,101916.69
2022-10-07T05:14:43.104Z,101922.88
2022-10-07T05:15:51.431Z,101924.69
2022-10-07T05:16:54.068Z,101933.56
2022-10-07T05:18:00.548Z,101922.88
2022-10-07T05:19:04.662Z,101932.69
2022-10-07T05:20:10.106Z,101923.84
2022-10-07T05:21:13.902Z,101923.03
2022-10-07T05:22:19.776Z,101928.38
2022-10-07T05:23:28.427Z,101923.03
2022-10-07T05:24:33.105Z,101925.72
2022-10-07T05:25:37.084Z,101930.19
2022-10-07T05:26:40.152Z,101924.88
2022-10-07T05:27:44.039Z,101914.03
2022-10-07T05:28:49.388Z,101921.53
2022-10-07T05:29:55.553Z,101922.53
2022-10-07T05:31:06.753Z,101917.50
2022-10-07T05:32:09.624Z,101916.53
2022-10-07T05:33:13.165Z,101915.69
2022-10-07T05:34:17.057Z,101925.38
2022-10-07T05:35:21.774Z,101916.53
2022-10-07T05:36:24.148Z,101924.69
2022-10-07T05:37:28.628Z,101918.34
2022-10-07T05:38:31.371Z,101917.38
2022-10-07T05:39:34.457Z,101912.84
2022-10-07T05:40:45.087Z,101901.38
2022-10-07T05:41:48.205Z,101912.84
2022-10-07T05:42:54.571Z,101908.19
2022-10-07T05:43:57.610Z,101917.03
2022-10-07T05:45:05.156Z,101907.16
2022-10-07T05:46:11.654Z,101908.03
2022-10-07T05:47:18.814Z,101902.69
2022-10-07T05:48:21.736Z,101904.50
2022-10-07T05:49:24.795Z,101914.19
2022-10-07T05:50:28.084Z,101907.16
2022-10-07T05:51:31.012Z,101908.88
2022-10-07T05:52:35.653Z,101910.69
2022-10-07T05:53:41.210Z,101905.34
2022-10-07T05:54:43.388Z,101902.50
2022-10-07T05:55:47.585Z,101913.19
2022-10-07T05:56:50.003Z,101912.19
2022-10-07T05:57:55.163Z,101904.19
2022-10-07T05:58:57.343Z,101907.69
2022-10-07T06:00:04.903Z,101909.38
2022-10-07T06:01:17.158Z,101909.38
2022-10-07T06:02:20.781Z,101911.03
2022-10-07T06:03:25.887Z,101909.19
2022-10-07T06:04:29.865Z,101911.03
2022-10-07T06:05:33.372Z,101906.38
2022-10-07T06:06:36.694Z,101904.53
2022-10-07T06:07:44.023Z,101902.50
2022-10-07T06:08:46.726Z,101914.88
2022-10-07T06:10:07.189Z,101910.38
2022-10-07T06:11:28.981Z,101900.53
2022-10-07T06:12:49.580Z,101902.22
2022-10-07T06:13:54.417Z,101910.03
2022-10-07T06:14:56.366Z,101896.88
2022-10-07T06:16:02.989Z,101923.22
2022-10-07T06:17:04.950Z,101904.38
2022-10-07T06:18:08.357Z,101905.22
2022-10-07T06:19:22.435Z,101904.19
2022-10-07T06:20:27.535Z,101909.38
2022-10-07T06:21:32.650Z,101912.72
2022-10-07T06:22:39.088Z,101903.84
2022-10-07T06:23:41.083Z,101905.53
2022-10-07T06:24:45.288Z,101910.53
2022-10-07T06:25:52.531Z,101909.53
2022-10-07T06:26:55.992Z,101904.03
2022-10-07T06:28:00.007Z,101905.53
2022-10-07T06:29:05.492Z,101903.72
2022-10-07T06:30:08.961Z,101915.03
2022-10-07T06:31:13.689Z,101912.19
2022-10-07T06:32:15.679Z,101908.53
2022-10-07T06:33:20.504Z,101900.19
2022-10-07T06:34:23.522Z,101907.19
2022-10-07T06:35:27.155Z,101911.38
2022-10-07T06:36:30.038Z,101911.19
2022-10-07T06:37:35.344Z,101906.53
2022-10-07T06:38:37.756Z,101907.19
2022-10-07T06:39:40.888Z,101903.53
2022-10-07T06:40:43.837Z,101903.19
2022-10-07T06:41:46.769Z,101904.88
2022-10-07T06:43:18.837Z,101903.50
2022-10-07T06:44:28.294Z,101898.84
2022-10-07T06:45:32.577Z,101909.16
2022-10-07T06:46:35.744Z,101896.50
2022-10-07T06:47:38.841Z,101906.00
2022-10-07T06:48:44.523Z,101890.81
2022-10-07T06:49:46.529Z,101902.81
2022-10-07T06:50:53.457Z,101893.78
2022-10-07T06:51:55.860Z,101905.16
2022-10-07T06:53:00.306Z,101898.66
2022-10-07T06:54:05.093Z,101904.63
2022-10-07T06:55:08.924Z,101905.47
2022-10-07T06:56:13.510Z,101895.28
2022-10-07T06:57:44.314Z,101900.28
2022-10-07T06:58:42.943Z,101901.78
2022-10-07T06:59:46.577Z,101898.78
2022-10-07T07:00:52.209Z,101895.09
2022-10-07T07:01:56.446Z,101896.41
2022-10-07T07:03:01.396Z,101901.59
2022-10-07T07:04:03.945Z,101896.75
2022-10-07T07:05:08.967Z,101895.53
2022-10-07T07:06:13.712Z,101891.72
2022-10-07T07:07:16.685Z,101894.03
2022-10-07T07:08:20.976Z,101896.34
2022-10-07T07:09:24.077Z,101898.72
2022-10-07T07:10:28.075Z,101897.38
2022-10-07T07:11:41.768Z,101899.03
2022-10-07T07:12:49.798Z,101901.38
2022-10-07T07:13:54.314Z,101916.22
2022-10-07T07:14:57.234Z,101894.47
2022-10-07T07:16:00.138Z,101885.47
2022-10-07T07:17:06.824Z,101900.13
2022-10-07T07:18:10.623Z,101890.09
2022-10-07T07:19:15.022Z,101889.94
2022-10-07T07:20:17.747Z,101894.94
2022-10-07T07:21:21.320Z,101892.09
2022-10-07T07:22:23.717Z,101892.59
2022-10-07T07:23:28.360Z,101899.22
2022-10-07T07:24:31.028Z,101891.03
2022-10-07T07:25:37.928Z,101892.34
2022-10-07T07:26:42.048Z,101892.19
2022-10-07T07:27:48.646Z,101892.66
2022-10-07T07:28:53.347Z,101900.50
2022-10-07T07:29:57.689Z,101884.94
2022-10-07T07:31:00.423Z,101889.94
2022-10-07T07:32:04.475Z,101886.91
2022-10-07T07:33:10.102Z,101891.09
2022-10-07T07:34:15.319Z,101878.50
2022-10-07T07:35:18.567Z,101883.19
2022-10-07T07:36:24.058Z,101883.66
2022-10-07T07:37:29.547Z,101876.63
2022-10-07T07:38:33.813Z,101887.44
2022-10-07T07:39:36.864Z,101880.75
2022-10-07T07:40:44.818Z,101883.03
2022-10-07T07:41:50.763Z,101884.56
2022-10-07T07:42:56.062Z,101883.34
2022-10-07T07:44:00.812Z,101880.50
2022-10-07T07:45:04.011Z,101882.66
2022-10-07T07:46:08.068Z,101883.28
2022-10-07T07:47:11.361Z,101878.59
2022-10-07T07:48:15.171Z,101879.06
2022-10-07T07:49:18.299Z,101881.38
2022-10-07T07:50:27.068Z,101877.50
2022-10-07T07:51:32.024Z,101875.31
2022-10-07T07:52:35.687Z,101874.94
2022-10-07T07:53:40.887Z,101867.38
2022-10-07T07:54:43.915Z,101872.38
2022-10-07T07:55:52.522Z,101871.19
2022-10-07T07:56:55.830Z,101875.16
2022-10-07T07:57:58.495Z,101873.97
2022-10-07T07:59:02.747Z,101876.09
2022-10-07T08:00:07.455Z,101871.41
2022-10-07T08:01:18.983Z,101867.31
2022-10-07T08:02:23.538Z,101852.56
2022-10-07T08:03:27.162Z,101870.09
2022-10-07T08:04:30.892Z,101860.22
2022-10-07T08:05:34.785Z,101857.81
2022-10-07T08:06:37.824Z,101860.13
2022-10-07T08:07:40.770Z,101861.63
2022-10-07T08:08:46.128Z,101859.44
2022-10-07T08:09:49.789Z,101853.06
2022-10-07T08:10:52.816Z,101861.19
2022-10-07T08:11:56.315Z,101864.34
2022-10-07T08:12:59.605Z,101855.13
2022-10-07T08:14:03.495Z,101855.72
2022-10-07T08:15:10.811Z,101861.22
2022-10-07T08:16:16.668Z,101853.59
2022-10-07T08:17:19.750Z,101848.72
2022-10-07T08:18:23.212Z,101848.34
2022-10-07T08:19:26.339Z,101853.34
2022-10-07T08:20:28.782Z,101847.59
2022-10-07T08:21:32.912Z,101841.84
2022-10-07T08:22:35.890Z,101849.31
2022-10-07T08:23:40.006Z,101839.25
2022-10-07T08:24:44.521Z,101845.72
2022-10-07T08:25:46.514Z,101849.06
2022-10-07T08:26:51.048Z,101843.97
2022-10-07T08:27:53.081Z,101843.56
2022-10-07T08:28:56.276Z,101843.19
2022-10-07T08:29:58.265Z,101839.31
2022-10-07T08:31:05.464Z,101842.47
2022-10-07T08:32:08.702Z,101841.03
2022-10-07T08:33:10.674Z,101843.34
2022-10-07T08:34:13.651Z,101836.13
2022-10-07T08:35:15.812Z,101839.25
2022-10-07T08:36:21.584Z,101846.94
2022-10-07T08:37:23.558Z,101838.50
2022-10-07T08:38:26.868Z,101836.06
2022-10-07T08:39:31.205Z,101833.84
2022-10-07T08:40:35.199Z,101835.97
2022-10-07T08:42:00.029Z,101822.81
2022-10-07T08:43:02.985Z,101822.41
2022-10-07T08:44:18.993Z,101820.97
2022-10-07T08:45:31.868Z,101827.44
2022-10-07T08:46:38.063Z,101822.53
2022-10-07T08:47:45.123Z,101827.69
2022-10-07T08:48:52.998Z,101822.78
2022-10-07T08:50:04.433Z,101826.09
2022-10-07T08:51:20.133Z,101824.72
2022-10-07T08:52:33.270Z,101818.97
2022-10-07T08:53:37.733Z,101817.09
2022-10-07T08:54:39.745Z,101818.78
2022-10-07T08:55:49.899Z,101805.06
2022-10-07T08:56:53.264Z,101816.53
2022-10-07T08:58:09.704Z,101806.59
2022-10-07T08:59:19.325Z,101819.84
2022-10-07T09:00:24.843Z,101812.81
2022-10-07T09:01:38.106Z,101811.97
2022-10-07T09:03:03.047Z,101814.66
2022-10-07T09:04:17.989Z,101812.16
2022-10-07T09:05:23.906Z,101809.28
2022-10-07T09:06:29.676Z,101806.59
2022-10-07T09:07:36.015Z,101791.31
2022-10-07T09:08:42.484Z,101808.91
2022-10-07T09:09:53.670Z,101805.00
2022-10-07T09:11:15.613Z,101804.16
2022-10-07T09:12:22.941Z,101800.91
2022-10-07T09:13:29.610Z,101795.34
2022-10-07T09:14:40.998Z,101802.16
2022-10-07T09:15:50.482Z,101791.22
2022-10-07T09:16:55.141Z,101795.19
2022-10-07T09:18:03.477Z,101801.00
2022-10-07T09:19:06.274Z,101791.91
2022-10-07T09:20:16.879Z,101787.41
2022-10-07T09:21:23.593Z,101793.00
2022-10-07T09:22:32.729Z,101780.84
2022-10-07T09:23:36.831Z,101788.31
2022-10-07T09:24:40.004Z,101785.03
2022-10-07T09:25:42.647Z,101784.63
2022-10-07T09:26:47.371Z,101785.91
2022-10-07T09:27:51.366Z,101781.78
2022-10-07T09:28:54.423Z,101793.78
2022-10-07T09:29:56.620Z,101786.78
2022-10-07T09:31:00.963Z,101786.59
2022-10-07T09:32:03.969Z,101786.19
2022-10-07T09:33:13.217Z,101784.75
2022-10-07T09:34:22.406Z,101775.66
2022-10-07T09:35:26.266Z,101772.16
2022-10-07T09:36:29.273Z,101778.56
2022-10-07T09:37:31.276Z,101771.13
2022-10-07T09:38:36.964Z,101766.41
2022-10-07T09:39:39.827Z,101773.41
2022-10-07T09:41:04.121Z,101765.56
2022-10-07T09:42:11.310Z,101773.22
2022-10-07T09:43:20.336Z,101763.09
2022-10-07T09:44:27.431Z,101765.38
2022-10-07T09:45:32.365Z,101761.28
2022-10-07T09:46:48.327Z,101760.06
2022-10-07T09:47:53.696Z,101756.31
2022-10-07T09:48:56.149Z,101761.09
2022-10-07T09:50:00.445Z,101761.75
2022-10-07T09:51:17.257Z,101754.94
2022-10-07T09:52:23.355Z,101757.22
2022-10-07T09:53:28.996Z,101750.59
2022-10-07T09:54:32.643Z,101754.53
2022-10-07T09:55:41.381Z,101751.00
2022-10-07T09:56:46.096Z,101747.31
2022-10-07T09:58:00.818Z,101749.38
2022-10-07T09:59:21.353Z,101747.72
2022-10-07T10:00:26.717Z,101751.66
2022-10-07T10:01:28.755Z,101748.56
2022-10-07T10:02:32.668Z,101756.22
2022-10-07T10:03:37.681Z,101747.72
2022-10-07T10:04:47.829Z,101733.63
2022-10-07T10:05:57.714Z,101734.69
2022-10-07T10:07:04.511Z,101744.19
2022-10-07T10:08:20.327Z,101725.75
2022-10-07T10:09:25.722Z,101743.59
2022-10-07T10:10:31.336Z,101735.28
2022-10-07T10:11:33.327Z,101741.31
2022-10-07T10:12:46.097Z,101732.81
2022-10-07T10:13:52.560Z,101733.44
2022-10-07T10:14:58.020Z,101739.25
2022-10-07T10:16:02.141Z,101734.22
2022-10-07T10:17:04.449Z,101730.31
2022-10-07T10:18:26.623Z,101729.03
2022-10-07T10:19:33.604Z,101732.38
2022-10-07T10:20:43.444Z,101736.31
2022-10-07T10:21:51.866Z,101727.78
2022-10-07T10:22:55.063Z,101721.97
2022-10-07T10:23:59.644Z,101729.63
2022-10-07T10:25:19.936Z,101723.84
2022-10-07T10:26:56.010Z,101728.59
2022-10-07T10:28:05.141Z,101725.69
2022-10-07T10:29:29.902Z,101720.69
2022-10-07T10:30:37.977Z,101721.13
2022-10-07T10:31:55.863Z,101711.59
2022-10-07T10:33:17.149Z,101719.03
2022-10-07T10:34:35.184Z,101716.53
2022-10-07T10:35:46.532Z,101712.78
2022-10-07T10:37:00.098Z,101705.72
2022-10-07T10:38:23.410Z,101712.38
2022-10-07T10:39:40.401Z,101712.94
2022-10-07T10:40:49.545Z,101704.66
2022-10-07T10:41:56.941Z,101702.78
2022-10-07T10:43:16.494Z,101709.41
2022-10-07T10:44:38.663Z,101697.34
2022-10-07T10:45:52.257Z,101692.81
2022-10-07T10:47:02.133Z,101690.09
2022-10-07T10:48:24.269Z,101693.19
2022-10-07T10:49:30.326Z,101693.81
2022-10-07T10:50:43.225Z,101701.69
2022-10-07T10:52:03.392Z,101691.53
2022-10-07T10:53:21.065Z,101699.19
2022-10-07T10:54:32.263Z,101690.66
2022-10-07T10:56:05.451Z,101690.22
2022-10-07T10:57:15.973Z,101688.97
2022-10-07T10:58:30.040Z,101686.03
2022-10-07T11:00:07.880Z,101687.69
2022-10-07T11:01:24.010Z,101671.28
2022-10-07T11:02:49.463Z,101675.88
2022-10-07T11:04:13.606Z,101667.16
2022-10-07T11:05:18.933Z,101667.78
2022-10-07T11:06:23.459Z,101673.53
2022-10-07T11:07:30.319Z,101655.72
2022-10-07T11:08:38.390Z,101666.91
2022-10-07T11:09:46.085Z,101668.13
2022-10-07T11:10:51.609Z,101666.00
2022-10-07T11:11:54.784Z,101666.63
2022-10-07T11:13:00.373Z,101667.69
2022-10-07T11:14:07.817Z,101670.56
2022-10-07T11:15:20.467Z,101658.91
2022-10-07T11:16:27.897Z,101656.84
2022-10-07T11:17:35.861Z,101655.16
2022-10-07T11:18:45.699Z,101653.09
2022-10-07T11:19:54.297Z,101660.09
2022-10-07T11:20:59.764Z,101648.84
2022-10-07T11:22:03.497Z,101652.97
2022-10-07T11:23:19.205Z,101649.88
2022-10-07T11:24:28.578Z,101640.47
2022-10-07T11:25:36.414Z,101643.78
2022-10-07T11:26:45.045Z,101644.19
2022-10-07T11:27:50.813Z,101651.22
2022-10-07T11:28:54.887Z,101636.91
2022-10-07T11:30:03.138Z,101639.63
2022-10-07T11:31:13.983Z,101627.59
2022-10-07T11:32:21.535Z,101631.28
2022-10-07T11:33:32.144Z,101644.59
2022-10-07T11:34:43.117Z,101630.03
2022-10-07T11:35:51.343Z,101630.66
2022-10-07T11:37:02.987Z,101627.13
2022-10-07T11:38:16.517Z,101632.06
2022-10-07T11:39:19.767Z,101622.72
2022-10-07T11:40:28.242Z,101630.38
2022-10-07T11:41:35.797Z,101629.13
2022-10-07T11:42:43.102Z,101627.81
2022-10-07T11:43:48.775Z,101636.53
2022-10-07T11:44:57.160Z,101629.03
2022-10-07T11:46:07.985Z,101619.03
2022-10-07T11:47:21.301Z,101613.44
2022-10-07T11:48:27.152Z,101616.94
2022-10-07T11:49:36.051Z,101617.56
2022-10-07T11:50:41.807Z,101619.00
2022-10-07T11:51:55.047Z,101608.56
2022-10-07T11:53:05.881Z,101604.59
2022-10-07T11:54:15.125Z,101616.63
2022-10-07T11:55:23.149Z,101608.50
2022-10-07T11:56:27.043Z,101614.06
2022-10-07T11:57:33.949Z,101617.56
2022-10-07T11:58:39.171Z,101601.22
2022-10-07T11:59:45.555Z,101594.53
2022-10-07T12:00:47.850Z,101593.94
2022-10-07T12:01:55.304Z,101598.50
2022-10-07T12:03:12.730Z,101596.63
2022-10-07T12:04:25.046Z,101583.97
2022-10-07T12:06:07.273Z,101581.63
2022-10-07T12:07:56.544Z,101588.84
2022-10-07T12:08:58.559Z,101579.81
2022-10-07T12:10:22.088Z,101572.69
2022-10-07T12:11:46.841Z,101585.28
2022-10-07T12:12:51.867Z,101573.22
2022-10-07T12:13:55.226Z,101574.19
2022-10-07T12:15:02.216Z,101563.38
2022-10-07T12:16:38.538Z,101568.69
2022-10-07T12:17:53.983Z,101555.53
2022-10-07T12:19:23.246Z,101558.38
2022-10-07T12:20:45.164Z,101567.44
2022-10-07T12:22:15.132Z,101549.72
2022-10-07T12:23:44.304Z,101555.97
2022-10-07T12:25:29.315Z,101552.41
2022-10-07T12:26:51.226Z,101548.50
2022-10-07T12:27:54.502Z,101552.06
2022-10-07T12:28:58.363Z,101548.50
2022-10-07T12:30:03.138Z,101552.28
2022-10-07T12:31:26.788Z,101549.81
2022-10-07T12:32:57.771Z,101541.09
2022-10-07T12:34:10.403Z,101540.25
2022-10-07T12:35:53.965Z,101546.75
2022-10-07T12:37:36.052Z,101538.03
2022-10-07T12:38:39.076Z,101533.91
2022-10-07T12:39:41.567Z,101536.38
2022-10-07T12:40:49.507Z,101532.00
2022-10-07T12:41:52.906Z,101534.72
2022-10-07T12:43:10.625Z,101528.94
2022-10-07T12:44:20.941Z,101530.25
2022-10-07T12:45:26.977Z,101532.94
2022-10-07T12:46:34.421Z,101532.56
2022-10-07T12:47:36.555Z,101527.41
2022-10-07T12:48:44.775Z,101529.50